Main page
METAR-TAF:

METAR-TAF

Airports :

Ventspils International Airport

Ventspils, Latvia

latitude: 57-21-28N, longitude: 021-32-39E, elevation: 6 m

Current weather observation

The report was made 33 minutes ago, at 23:50 UTC
Wind 8 kt from the South
Temperature -3°C
Humidity 86%
Pressure 1011 hPa
Visibility: 5000 m
Overcast at a height of 1300 ft
mist

METAR: EVVA 222350Z AUTO 17008KT 5000 BR OVC013 M03/M05 Q1011

Time: 02:23 (00:23 UTC)


TAF: missing

Weather observations and forecasts of more than 4000 airports (METAR and TAF reports).

The available stations are represented by yellow and red dots on the map.

Hover mouse over dot to see the name of the station.

Then click to see weather observations and forecasts.

To change the map : click on the green buttons with a black cross to zoom in, on the green button with a dash to zoom out, or on the green arrows for adjacent maps.


METAR-TAF: